sensor_id;sensor_type;location;lat;lon;timestamp;temperature;humidity
6206;DHT22;3136;48.788;9.772;2022-07-12T00:01:08;13.40;1.00
6206;DHT22;3136;48.788;9.772;2022-07-12T00:03:34;13.40;1.00
6206;DHT22;3136;48.788;9.772;2022-07-12T00:06:00;13.30;1.00
6206;DHT22;3136;48.788;9.772;2022-07-12T00:08:25;13.30;1.00
6206;DHT22;3136;48.788;9.772;2022-07-12T00:10:51;13.30;1.00
6206;DHT22;3136;48.788;9.772;2022-07-12T00:13:17;13.40;1.00
6206;DHT22;3136;48.788;9.772;2022-07-12T00:15:43;13.20;1.00
6206;DHT22;3136;48.788;9.772;2022-07-12T00:18:10;13.30;1.00
6206;DHT22;3136;48.788;9.772;2022-07-12T00:20:36;13.20;1.00
6206;DHT22;3136;48.788;9.772;2022-07-12T00:23:03;13.40;1.00
6206;DHT22;3136;48.788;9.772;2022-07-12T00:25:28;13.20;1.00
6206;DHT22;3136;48.788;9.772;2022-07-12T00:27:54;13.40;1.00
6206;DHT22;3136;48.788;9.772;2022-07-12T00:30:21;13.10;1.00
6206;DHT22;3136;48.788;9.772;2022-07-12T00:32:47;13.10;1.00
6206;DHT22;3136;48.788;9.772;2022-07-12T00:35:13;13.10;9.70
6206;DHT22;3136;48.788;9.772;2022-07-12T00:37:38;13.10;39.00
6206;DHT22;3136;48.788;9.772;2022-07-12T00:40:06;13.30;52.80
6206;DHT22;3136;48.788;9.772;2022-07-12T00:42:32;13.00;29.60
6206;DHT22;3136;48.788;9.772;2022-07-12T00:44:58;13.00;33.30
6206;DHT22;3136;48.788;9.772;2022-07-12T00:47:37;13.00;41.80
6206;DHT22;3136;48.788;9.772;2022-07-12T00:50:19;13.40;90.10
6206;DHT22;3136;48.788;9.772;2022-07-12T00:52:46;13.00;99.90
6206;DHT22;3136;48.788;9.772;2022-07-12T00:55:13;13.00;99.90
6206;DHT22;3136;48.788;9.772;2022-07-12T00:57:39;13.00;99.90
6206;DHT22;3136;48.788;9.772;2022-07-12T01:00:09;13.10;99.90
6206;DHT22;3136;48.788;9.772;2022-07-12T01:02:36;12.90;99.90
6206;DHT22;3136;48.788;9.772;2022-07-12T01:05:04;12.90;99.90
6206;DHT22;3136;48.788;9.772;2022-07-12T01:07:30;12.90;99.90
6206;DHT22;3136;48.788;9.772;2022-07-12T01:09:57;12.80;99.90
6206;DHT22;3136;48.788;9.772;2022-07-12T01:12:24;12.80;99.90
6206;DHT22;3136;48.788;9.772;2022-07-12T01:14:50;12.80;99.90
6206;DHT22;3136;48.788;9.772;2022-07-12T01:17:24;12.80;99.90
6206;DHT22;3136;48.788;9.772;2022-07-12T01:19:52;12.80;99.90
6206;DHT22;3136;48.788;9.772;2022-07-12T01:22:19;12.90;99.90
6206;DHT22;3136;48.788;9.772;2022-07-12T01:24:46;12.90;99.90
6206;DHT22;3136;48.788;9.772;2022-07-12T01:27:12;13.10;99.90
6206;DHT22;3136;48.788;9.772;2022-07-12T01:29:39;12.90;99.90
6206;DHT22;3136;48.788;9.772;2022-07-12T01:32:06;12.90;99.90
6206;DHT22;3136;48.788;9.772;2022-07-12T01:34:52;12.90;99.90
6206;DHT22;3136;48.788;9.772;2022-07-12T01:37:19;12.90;99.90
6206;DHT22;3136;48.788;9.772;2022-07-12T01:39:46;12.90;99.90
6206;DHT22;3136;48.788;9.772;2022-07-12T01:42:12;12.90;99.90
6206;DHT22;3136;48.788;9.772;2022-07-12T01:44:38;12.80;99.90
6206;DHT22;3136;48.788;9.772;2022-07-12T01:47:04;12.80;99.90
6206;DHT22;3136;48.788;9.772;2022-07-12T01:49:30;12.80;99.90
6206;DHT22;3136;48.788;9.772;2022-07-12T01:51:56;12.80;99.90
6206;DHT22;3136;48.788;9.772;2022-07-12T01:54:26;12.70;99.90
6206;DHT22;3136;48.788;9.772;2022-07-12T01:56:52;12.70;99.90
6206;DHT22;3136;48.788;9.772;2022-07-12T01:59:18;12.30;99.90
6206;DHT22;3136;48.788;9.772;2022-07-12T02:01:45;12.80;99.90
6206;DHT22;3136;48.788;9.772;2022-07-12T02:04:10;12.60;99.90
6206;DHT22;3136;48.788;9.772;2022-07-12T02:06:37;12.60;99.90
6206;DHT22;3136;48.788;9.772;2022-07-12T02:09:04;12.60;99.90
6206;DHT22;3136;48.788;9.772;2022-07-12T02:11:31;12.70;99.90
6206;DHT22;3136;48.788;9.772;2022-07-12T02:13:57;12.50;99.90
6206;DHT22;3136;48.788;9.772;2022-07-12T02:16:22;12.50;99.90
6206;DHT22;3136;48.788;9.772;2022-07-12T02:18:48;12.50;99.90
6206;DHT22;3136;48.788;9.772;2022-07-12T02:21:13;12.50;99.90
6206;DHT22;3136;48.788;9.772;2022-07-12T02:23:39;12.50;99.90
6206;DHT22;3136;48.788;9.772;2022-07-12T02:26:04;12.40;99.90
6206;DHT22;3136;48.788;9.772;2022-07-12T02:28:30;12.40;99.90
6206;DHT22;3136;48.788;9.772;2022-07-12T02:30:57;12.40;99.90
6206;DHT22;3136;48.788;9.772;2022-07-12T02:33:22;12.30;99.90
6206;DHT22;3136;48.788;9.772;2022-07-12T02:35:48;12.30;99.90
6206;DHT22;3136;48.788;9.772;2022-07-12T02:38:14;12.20;99.90
6206;DHT22;3136;48.788;9.772;2022-07-12T02:40:39;12.30;99.90
6206;DHT22;3136;48.788;9.772;2022-07-12T02:43:28;12.10;99.90
6206;DHT22;3136;48.788;9.772;2022-07-12T02:45:55;12.10;99.90
6206;DHT22;3136;48.788;9.772;2022-07-12T02:48:24;12.10;99.90
6206;DHT22;3136;48.788;9.772;2022-07-12T02:50:49;12.00;99.90
6206;DHT22;3136;48.788;9.772;2022-07-12T02:53:15;12.00;99.90
6206;DHT22;3136;48.788;9.772;2022-07-12T02:55:41;12.00;99.90
6206;DHT22;3136;48.788;9.772;2022-07-12T02:58:06;11.90;99.90
6206;DHT22;3136;48.788;9.772;2022-07-12T03:00:33;11.90;99.90
6206;DHT22;3136;48.788;9.772;2022-07-12T03:02:59;11.80;99.90
6206;DHT22;3136;48.788;9.772;2022-07-12T03:05:24;11.90;99.90
6206;DHT22;3136;48.788;9.772;2022-07-12T03:07:50;11.80;99.90
6206;DHT22;3136;48.788;9.772;2022-07-12T03:10:15;12.20;99.90
6206;DHT22;3136;48.788;9.772;2022-07-12T03:12:41;11.80;99.90
6206;DHT22;3136;48.788;9.772;2022-07-12T03:15:07;11.80;99.90
6206;DHT22;3136;48.788;9.772;2022-07-12T03:17:33;11.70;99.90
6206;DHT22;3136;48.788;9.772;2022-07-12T03:19:59;11.70;99.90
6206;DHT22;3136;48.788;9.772;2022-07-12T03:22:25;11.70;99.90
6206;DHT22;3136;48.788;9.772;2022-07-12T03:24:50;11.80;99.90
6206;DHT22;3136;48.788;9.772;2022-07-12T03:27:17;11.70;1.00
6206;DHT22;3136;48.788;9.772;2022-07-12T03:29:42;11.70;1.00
6206;DHT22;3136;48.788;9.772;2022-07-12T03:32:08;11.70;1.00
6206;DHT22;3136;48.788;9.772;2022-07-12T03:34:35;11.70;1.00
6206;DHT22;3136;48.788;9.772;2022-07-12T03:37:01;11.80;1.00
6206;DHT22;3136;48.788;9.772;2022-07-12T03:39:26;11.80;1.00
6206;DHT22;3136;48.788;9.772;2022-07-12T03:41:52;11.90;1.00
6206;DHT22;3136;48.788;9.772;2022-07-12T03:44:17;11.90;1.00
6206;DHT22;3136;48.788;9.772;2022-07-12T03:46:43;11.90;1.00
6206;DHT22;3136;48.788;9.772;2022-07-12T03:49:09;12.00;1.00
6206;DHT22;3136;48.788;9.772;2022-07-12T03:51:34;12.00;1.00
6206;DHT22;3136;48.788;9.772;2022-07-12T03:54:00;12.10;1.00
6206;DHT22;3136;48.788;9.772;2022-07-12T03:56:25;12.10;1.00
6206;DHT22;3136;48.788;9.772;2022-07-12T03:59:10;12.20;1.00
6206;DHT22;3136;48.788;9.772;2022-07-12T04:01:35;12.30;1.00
6206;DHT22;3136;48.788;9.772;2022-07-12T04:04:01;12.30;99.90
6206;DHT22;3136;48.788;9.772;2022-07-12T04:06:28;12.30;99.90
6206;DHT22;3136;48.788;9.772;2022-07-12T04:08:54;12.20;99.90
6206;DHT22;3136;48.788;9.772;2022-07-12T04:11:19;12.30;99.90
6206;DHT22;3136;48.788;9.772;2022-07-12T04:13:45;12.30;99.90
6206;DHT22;3136;48.788;9.772;2022-07-12T04:16:10;12.30;99.90
6206;DHT22;3136;48.788;9.772;2022-07-12T04:18:37;12.60;99.90
6206;DHT22;3136;48.788;9.772;2022-07-12T04:21:03;12.30;99.90
6206;DHT22;3136;48.788;9.772;2022-07-12T04:23:29;12.30;99.90
6206;DHT22;3136;48.788;9.772;2022-07-12T04:25:54;12.30;99.90
6206;DHT22;3136;48.788;9.772;2022-07-12T04:28:20;12.40;99.90
6206;DHT22;3136;48.788;9.772;2022-07-12T04:30:45;12.30;99.90
6206;DHT22;3136;48.788;9.772;2022-07-12T04:33:12;12.40;1.00
6206;DHT22;3136;48.788;9.772;2022-07-12T04:35:38;12.50;1.00
6206;DHT22;3136;48.788;9.772;2022-07-12T04:38:04;12.60;1.00
6206;DHT22;3136;48.788;9.772;2022-07-12T04:40:30;12.90;1.00
6206;DHT22;3136;48.788;9.772;2022-07-12T04:42:56;12.80;1.00
6206;DHT22;3136;48.788;9.772;2022-07-12T04:45:22;12.80;99.90
6206;DHT22;3136;48.788;9.772;2022-07-12T04:47:47;12.80;99.90
6206;DHT22;3136;48.788;9.772;2022-07-12T04:50:13;12.90;99.90
6206;DHT22;3136;48.788;9.772;2022-07-12T04:52:39;12.90;99.90
6206;DHT22;3136;48.788;9.772;2022-07-12T04:55:05;13.20;99.90
6206;DHT22;3136;48.788;9.772;2022-07-12T04:57:31;13.10;99.90
6206;DHT22;3136;48.788;9.772;2022-07-12T04:59:57;13.10;99.90
6206;DHT22;3136;48.788;9.772;2022-07-12T05:02:22;13.20;99.90
6206;DHT22;3136;48.788;9.772;2022-07-12T05:04:48;13.30;99.90
6206;DHT22;3136;48.788;9.772;2022-07-12T05:07:13;13.30;99.90
6206;DHT22;3136;48.788;9.772;2022-07-12T05:09:39;13.30;99.90
6206;DHT22;3136;48.788;9.772;2022-07-12T05:12:05;13.30;53.20
6206;DHT22;3136;48.788;9.772;2022-07-12T05:14:31;13.30;30.40
6206;DHT22;3136;48.788;9.772;2022-07-12T05:16:57;13.50;48.20
6206;DHT22;3136;48.788;9.772;2022-07-12T05:19:22;13.40;15.90
6206;DHT22;3136;48.788;9.772;2022-07-12T05:21:48;13.60;26.00
6206;DHT22;3136;48.788;9.772;2022-07-12T05:24:14;13.50;1.00
6206;DHT22;3136;48.788;9.772;2022-07-12T05:26:40;13.60;1.00
6206;DHT22;3136;48.788;9.772;2022-07-12T05:29:06;13.70;1.00
6206;DHT22;3136;48.788;9.772;2022-07-12T05:31:32;13.80;1.00
6206;DHT22;3136;48.788;9.772;2022-07-12T05:33:58;13.90;1.00
6206;DHT22;3136;48.788;9.772;2022-07-12T05:36:23;14.00;1.00
6206;DHT22;3136;48.788;9.772;2022-07-12T05:38:49;14.00;1.00
6206;DHT22;3136;48.788;9.772;2022-07-12T05:41:15;14.10;99.90
6206;DHT22;3136;48.788;9.772;2022-07-12T05:43:40;14.20;99.90
6206;DHT22;3136;48.788;9.772;2022-07-12T05:46:06;14.30;99.90
6206;DHT22;3136;48.788;9.772;2022-07-12T05:48:31;14.30;99.90
6206;DHT22;3136;48.788;9.772;2022-07-12T05:50:57;14.40;99.90
6206;DHT22;3136;48.788;9.772;2022-07-12T05:53:43;14.30;99.90
6206;DHT22;3136;48.788;9.772;2022-07-12T05:56:08;14.40;99.90
6206;DHT22;3136;48.788;9.772;2022-07-12T05:58:34;14.50;99.90
6206;DHT22;3136;48.788;9.772;2022-07-12T06:00:59;14.60;99.90
6206;DHT22;3136;48.788;9.772;2022-07-12T06:03:25;14.70;99.90
6206;DHT22;3136;48.788;9.772;2022-07-12T06:05:50;14.80;99.90
6206;DHT22;3136;48.788;9.772;2022-07-12T06:08:16;15.00;99.90
6206;DHT22;3136;48.788;9.772;2022-07-12T06:10:42;15.10;99.90
6206;DHT22;3136;48.788;9.772;2022-07-12T06:13:08;15.20;99.90
6206;DHT22;3136;48.788;9.772;2022-07-12T06:15:35;15.30;99.90
6206;DHT22;3136;48.788;9.772;2022-07-12T06:18:02;15.40;99.90
6206;DHT22;3136;48.788;9.772;2022-07-12T06:20:28;15.50;99.90
6206;DHT22;3136;48.788;9.772;2022-07-12T06:22:54;15.50;99.90
6206;DHT22;3136;48.788;9.772;2022-07-12T06:25:19;15.70;99.90
6206;DHT22;3136;48.788;9.772;2022-07-12T06:27:45;15.80;99.90
6206;DHT22;3136;48.788;9.772;2022-07-12T06:30:11;16.00;99.90
6206;DHT22;3136;48.788;9.772;2022-07-12T06:32:37;16.20;99.90
6206;DHT22;3136;48.788;9.772;2022-07-12T06:35:03;16.30;99.90
6206;DHT22;3136;48.788;9.772;2022-07-12T06:37:29;16.50;99.90
6206;DHT22;3136;48.788;9.772;2022-07-12T06:39:54;16.60;99.90
6206;DHT22;3136;48.788;9.772;2022-07-12T06:42:20;16.60;84.60
6206;DHT22;3136;48.788;9.772;2022-07-12T06:44:45;16.80;56.40
6206;DHT22;3136;48.788;9.772;2022-07-12T06:47:11;16.80;46.30
6206;DHT22;3136;48.788;9.772;2022-07-12T06:49:36;17.10;45.00
6206;DHT22;3136;48.788;9.772;2022-07-12T06:52:02;16.90;45.70
6206;DHT22;3136;48.788;9.772;2022-07-12T06:54:28;16.90;52.20
6206;DHT22;3136;48.788;9.772;2022-07-12T06:56:53;16.90;51.90
6206;DHT22;3136;48.788;9.772;2022-07-12T06:59:20;17.10;47.30
6206;DHT22;3136;48.788;9.772;2022-07-12T07:01:45;17.10;30.50
6206;DHT22;3136;48.788;9.772;2022-07-12T07:04:11;17.30;16.80
6206;DHT22;3136;48.788;9.772;2022-07-12T07:06:36;17.50;3.20
6206;DHT22;3136;48.788;9.772;2022-07-12T07:09:02;17.70;1.00
6206;DHT22;3136;48.788;9.772;2022-07-12T07:11:32;17.90;1.00
6206;DHT22;3136;48.788;9.772;2022-07-12T07:13:57;18.20;1.00
6206;DHT22;3136;48.788;9.772;2022-07-12T07:16:23;18.30;1.00
6206;DHT22;3136;48.788;9.772;2022-07-12T07:18:49;18.50;1.00
6206;DHT22;3136;48.788;9.772;2022-07-12T07:21:15;18.60;1.00
6206;DHT22;3136;48.788;9.772;2022-07-12T07:23:41;18.70;1.00
6206;DHT22;3136;48.788;9.772;2022-07-12T07:26:06;18.80;1.00
6206;DHT22;3136;48.788;9.772;2022-07-12T07:28:32;18.90;1.00
6206;DHT22;3136;48.788;9.772;2022-07-12T07:30:58;18.90;1.00
6206;DHT22;3136;48.788;9.772;2022-07-12T07:33:25;18.90;1.00
6206;DHT22;3136;48.788;9.772;2022-07-12T07:35:51;18.80;1.00
6206;DHT22;3136;48.788;9.772;2022-07-12T07:38:18;18.90;1.00
6206;DHT22;3136;48.788;9.772;2022-07-12T07:40:44;19.00;1.00
6206;DHT22;3136;48.788;9.772;2022-07-12T07:43:11;19.00;1.00
6206;DHT22;3136;48.788;9.772;2022-07-12T07:45:36;19.00;1.00
6206;DHT22;3136;48.788;9.772;2022-07-12T07:48:02;19.10;1.00
6206;DHT22;3136;48.788;9.772;2022-07-12T07:50:30;19.20;1.00
6206;DHT22;3136;48.788;9.772;2022-07-12T07:52:56;19.30;1.00
6206;DHT22;3136;48.788;9.772;2022-07-12T07:55:21;19.40;1.00
6206;DHT22;3136;48.788;9.772;2022-07-12T07:57:47;19.50;1.00
6206;DHT22;3136;48.788;9.772;2022-07-12T08:00:13;19.50;1.00
6206;DHT22;3136;48.788;9.772;2022-07-12T08:02:43;19.60;1.00
6206;DHT22;3136;48.788;9.772;2022-07-12T08:05:08;19.70;1.00
6206;DHT22;3136;48.788;9.772;2022-07-12T08:07:34;19.80;1.00
6206;DHT22;3136;48.788;9.772;2022-07-12T08:10:00;20.00;1.00
6206;DHT22;3136;48.788;9.772;2022-07-12T08:12:25;20.10;1.00
6206;DHT22;3136;48.788;9.772;2022-07-12T08:14:51;20.10;1.00
6206;DHT22;3136;48.788;9.772;2022-07-12T08:17:17;20.20;1.00
6206;DHT22;3136;48.788;9.772;2022-07-12T08:19:43;20.20;1.00
6206;DHT22;3136;48.788;9.772;2022-07-12T08:22:08;20.30;1.00
6206;DHT22;3136;48.788;9.772;2022-07-12T08:24:35;20.50;1.00
6206;DHT22;3136;48.788;9.772;2022-07-12T08:27:00;20.70;1.00
6206;DHT22;3136;48.788;9.772;2022-07-12T08:29:26;20.70;1.00
6206;DHT22;3136;48.788;9.772;2022-07-12T08:31:51;20.90;1.00
6206;DHT22;3136;48.788;9.772;2022-07-12T08:34:17;20.90;1.00
6206;DHT22;3136;48.788;9.772;2022-07-12T08:36:42;20.90;1.00
6206;DHT22;3136;48.788;9.772;2022-07-12T08:39:08;21.00;1.00
6206;DHT22;3136;48.788;9.772;2022-07-12T08:41:33;21.00;1.00
6206;DHT22;3136;48.788;9.772;2022-07-12T08:43:59;21.10;1.00
6206;DHT22;3136;48.788;9.772;2022-07-12T08:46:26;21.10;1.00
6206;DHT22;3136;48.788;9.772;2022-07-12T08:48:51;21.20;1.00
6206;DHT22;3136;48.788;9.772;2022-07-12T08:51:21;21.10;1.00
6206;DHT22;3136;48.788;9.772;2022-07-12T08:53:46;21.10;1.00
6206;DHT22;3136;48.788;9.772;2022-07-12T08:56:33;21.00;1.00
6206;DHT22;3136;48.788;9.772;2022-07-12T08:59:28;21.10;1.00
6206;DHT22;3136;48.788;9.772;2022-07-12T09:01:54;21.30;1.00
6206;DHT22;3136;48.788;9.772;2022-07-12T09:04:24;21.40;1.00
6206;DHT22;3136;48.788;9.772;2022-07-12T09:06:52;21.60;1.00
6206;DHT22;3136;48.788;9.772;2022-07-12T09:09:27;21.70;1.00
6206;DHT22;3136;48.788;9.772;2022-07-12T09:11:53;21.80;1.00
6206;DHT22;3136;48.788;9.772;2022-07-12T09:14:19;22.10;1.00
6206;DHT22;3136;48.788;9.772;2022-07-12T09:17:07;22.50;1.00
6206;DHT22;3136;48.788;9.772;2022-07-12T09:19:38;22.60;1.00
6206;DHT22;3136;48.788;9.772;2022-07-12T09:22:13;22.90;1.00
6206;DHT22;3136;48.788;9.772;2022-07-12T09:24:38;23.10;1.00
6206;DHT22;3136;48.788;9.772;2022-07-12T09:27:04;23.00;1.00
6206;DHT22;3136;48.788;9.772;2022-07-12T09:29:31;23.00;1.00
6206;DHT22;3136;48.788;9.772;2022-07-12T09:32:06;22.60;1.00
6206;DHT22;3136;48.788;9.772;2022-07-12T09:34:56;22.40;1.00
6206;DHT22;3136;48.788;9.772;2022-07-12T09:38:08;22.10;1.00
6206;DHT22;3136;48.788;9.772;2022-07-12T09:40:34;21.90;1.00
6206;DHT22;3136;48.788;9.772;2022-07-12T09:43:02;21.90;1.00
6206;DHT22;3136;48.788;9.772;2022-07-12T09:45:29;21.90;1.00
6206;DHT22;3136;48.788;9.772;2022-07-12T09:47:55;22.00;1.00
6206;DHT22;3136;48.788;9.772;2022-07-12T09:50:21;22.00;1.00
6206;DHT22;3136;48.788;9.772;2022-07-12T09:52:48;22.00;1.00
6206;DHT22;3136;48.788;9.772;2022-07-12T09:55:17;22.00;1.00
6206;DHT22;3136;48.788;9.772;2022-07-12T09:57:44;22.20;1.00
6206;DHT22;3136;48.788;9.772;2022-07-12T10:00:11;22.50;1.00
6206;DHT22;3136;48.788;9.772;2022-07-12T10:02:37;22.80;1.00
6206;DHT22;3136;48.788;9.772;2022-07-12T10:05:04;23.10;1.00
6206;DHT22;3136;48.788;9.772;2022-07-12T10:07:32;23.50;1.00
6206;DHT22;3136;48.788;9.772;2022-07-12T10:09:58;23.80;1.00
6206;DHT22;3136;48.788;9.772;2022-07-12T10:12:24;23.80;1.00
6206;DHT22;3136;48.788;9.772;2022-07-12T10:14:57;24.00;1.00
6206;DHT22;3136;48.788;9.772;2022-07-12T10:17:26;24.20;1.00
6206;DHT22;3136;48.788;9.772;2022-07-12T10:20:23;24.10;1.00
6206;DHT22;3136;48.788;9.772;2022-07-12T10:23:27;24.00;1.00
6206;DHT22;3136;48.788;9.772;2022-07-12T10:25:42;23.60;1.00
6206;DHT22;3136;48.788;9.772;2022-07-12T10:28:08;23.70;1.00
6206;DHT22;3136;48.788;9.772;2022-07-12T10:30:47;24.00;1.00
6206;DHT22;3136;48.788;9.772;2022-07-12T10:33:24;24.20;1.00
6206;DHT22;3136;48.788;9.772;2022-07-12T10:36:00;24.40;1.00
6206;DHT22;3136;48.788;9.772;2022-07-12T10:38:27;24.60;1.00
6206;DHT22;3136;48.788;9.772;2022-07-12T10:40:53;24.80;1.00
6206;DHT22;3136;48.788;9.772;2022-07-12T10:43:23;24.70;1.00
6206;DHT22;3136;48.788;9.772;2022-07-12T10:46:21;24.80;1.00
6206;DHT22;3136;48.788;9.772;2022-07-12T10:48:47;24.70;1.00
6206;DHT22;3136;48.788;9.772;2022-07-12T10:51:17;25.10;1.00
6206;DHT22;3136;48.788;9.772;2022-07-12T10:53:45;25.90;1.00
6206;DHT22;3136;48.788;9.772;2022-07-12T10:58:46;27.30;1.00
6206;DHT22;3136;48.788;9.772;2022-07-12T11:01:17;28.00;1.00
6206;DHT22;3136;48.788;9.772;2022-07-12T11:03:54;28.40;1.00
6206;DHT22;3136;48.788;9.772;2022-07-12T11:06:22;28.50;1.00
6206;DHT22;3136;48.788;9.772;2022-07-12T11:09:09;28.10;1.00
6206;DHT22;3136;48.788;9.772;2022-07-12T11:14:05;28.40;1.00
6206;DHT22;3136;48.788;9.772;2022-07-12T11:16:30;28.50;1.00
6206;DHT22;3136;48.788;9.772;2022-07-12T11:18:56;28.60;1.00
6206;DHT22;3136;48.788;9.772;2022-07-12T11:21:23;28.70;1.00
6206;DHT22;3136;48.788;9.772;2022-07-12T11:23:49;28.80;1.00
6206;DHT22;3136;48.788;9.772;2022-07-12T11:26:15;28.80;1.00
6206;DHT22;3136;48.788;9.772;2022-07-12T11:28:43;28.50;1.00
6206;DHT22;3136;48.788;9.772;2022-07-12T11:31:14;28.20;1.00
6206;DHT22;3136;48.788;9.772;2022-07-12T11:33:42;28.30;1.00
6206;DHT22;3136;48.788;9.772;2022-07-12T11:36:10;28.70;1.00
6206;DHT22;3136;48.788;9.772;2022-07-12T11:38:40;29.20;1.00
6206;DHT22;3136;48.788;9.772;2022-07-12T11:41:07;29.80;1.00
6206;DHT22;3136;48.788;9.772;2022-07-12T11:43:34;30.50;1.00
6206;DHT22;3136;48.788;9.772;2022-07-12T11:46:01;30.50;1.00
6206;DHT22;3136;48.788;9.772;2022-07-12T11:48:27;30.00;1.00
6206;DHT22;3136;48.788;9.772;2022-07-12T11:50:54;30.10;1.00
6206;DHT22;3136;48.788;9.772;2022-07-12T11:53:24;29.80;1.00
6206;DHT22;3136;48.788;9.772;2022-07-12T11:55:53;29.30;1.00
6206;DHT22;3136;48.788;9.772;2022-07-12T11:58:19;28.70;1.00
6206;DHT22;3136;48.788;9.772;2022-07-12T12:00:46;28.70;1.00
6206;DHT22;3136;48.788;9.772;2022-07-12T12:03:13;29.10;1.00
6206;DHT22;3136;48.788;9.772;2022-07-12T12:05:40;30.10;1.00
6206;DHT22;3136;48.788;9.772;2022-07-12T12:08:07;30.80;1.00
6206;DHT22;3136;48.788;9.772;2022-07-12T12:10:33;31.70;1.00
6206;DHT22;3136;48.788;9.772;2022-07-12T12:13:00;32.40;1.00
6206;DHT22;3136;48.788;9.772;2022-07-12T12:15:33;32.80;1.00
6206;DHT22;3136;48.788;9.772;2022-07-12T12:18:04;33.50;1.00
6206;DHT22;3136;48.788;9.772;2022-07-12T12:20:31;33.90;1.00
6206;DHT22;3136;48.788;9.772;2022-07-12T12:22:58;34.10;1.00
6206;DHT22;3136;48.788;9.772;2022-07-12T12:25:26;33.70;1.00
6206;DHT22;3136;48.788;9.772;2022-07-12T12:27:59;33.40;1.00
6206;DHT22;3136;48.788;9.772;2022-07-12T12:30:33;33.30;1.00
6206;DHT22;3136;48.788;9.772;2022-07-12T12:35:34;32.90;1.00
6206;DHT22;3136;48.788;9.772;2022-07-12T12:38:01;33.20;1.00
6206;DHT22;3136;48.788;9.772;2022-07-12T12:40:30;33.20;1.00
6206;DHT22;3136;48.788;9.772;2022-07-12T12:43:12;33.10;1.00
6206;DHT22;3136;48.788;9.772;2022-07-12T12:45:54;33.20;1.00
6206;DHT22;3136;48.788;9.772;2022-07-12T12:48:22;33.10;1.00
6206;DHT22;3136;48.788;9.772;2022-07-12T12:50:50;33.70;1.00
6206;DHT22;3136;48.788;9.772;2022-07-12T12:53:21;33.70;1.00
6206;DHT22;3136;48.788;9.772;2022-07-12T12:55:48;33.90;1.00
6206;DHT22;3136;48.788;9.772;2022-07-12T12:58:15;34.10;1.00
6206;DHT22;3136;48.788;9.772;2022-07-12T13:00:43;34.40;1.00
6206;DHT22;3136;48.788;9.772;2022-07-12T13:03:10;34.20;1.00
6206;DHT22;3136;48.788;9.772;2022-07-12T13:05:36;34.10;1.00
6206;DHT22;3136;48.788;9.772;2022-07-12T13:08:03;33.90;1.00
6206;DHT22;3136;48.788;9.772;2022-07-12T13:10:30;33.50;1.00
6206;DHT22;3136;48.788;9.772;2022-07-12T13:12:56;33.10;1.00
6206;DHT22;3136;48.788;9.772;2022-07-12T13:15:22;33.00;1.00
6206;DHT22;3136;48.788;9.772;2022-07-12T13:17:47;32.70;1.00
6206;DHT22;3136;48.788;9.772;2022-07-12T13:20:13;32.80;1.00
6206;DHT22;3136;48.788;9.772;2022-07-12T13:22:40;32.70;1.00
6206;DHT22;3136;48.788;9.772;2022-07-12T13:25:07;32.70;1.00
6206;DHT22;3136;48.788;9.772;2022-07-12T13:27:33;32.70;1.00
6206;DHT22;3136;48.788;9.772;2022-07-12T13:29:59;33.00;1.00
6206;DHT22;3136;48.788;9.772;2022-07-12T13:32:25;32.80;1.00
6206;DHT22;3136;48.788;9.772;2022-07-12T13:34:51;32.60;1.00
6206;DHT22;3136;48.788;9.772;2022-07-12T13:37:17;32.70;1.00
6206;DHT22;3136;48.788;9.772;2022-07-12T13:39:43;32.70;1.00
6206;DHT22;3136;48.788;9.772;2022-07-12T13:42:27;32.60;1.00
6206;DHT22;3136;48.788;9.772;2022-07-12T13:44:53;32.70;1.00
6206;DHT22;3136;48.788;9.772;2022-07-12T13:47:20;32.50;1.00
6206;DHT22;3136;48.788;9.772;2022-07-12T13:49:47;32.60;1.00
6206;DHT22;3136;48.788;9.772;2022-07-12T13:52:12;32.80;1.00
6206;DHT22;3136;48.788;9.772;2022-07-12T13:54:38;32.90;1.00
6206;DHT22;3136;48.788;9.772;2022-07-12T13:57:04;33.00;1.00
6206;DHT22;3136;48.788;9.772;2022-07-12T13:59:29;32.70;1.00
6206;DHT22;3136;48.788;9.772;2022-07-12T14:01:55;32.10;1.00
6206;DHT22;3136;48.788;9.772;2022-07-12T14:04:21;31.90;1.00
6206;DHT22;3136;48.788;9.772;2022-07-12T14:06:46;32.00;1.00
6206;DHT22;3136;48.788;9.772;2022-07-12T14:09:17;32.10;1.00
6206;DHT22;3136;48.788;9.772;2022-07-12T14:11:42;32.10;1.00
6206;DHT22;3136;48.788;9.772;2022-07-12T14:14:08;32.00;1.00
6206;DHT22;3136;48.788;9.772;2022-07-12T14:16:34;31.60;1.00
6206;DHT22;3136;48.788;9.772;2022-07-12T14:19:00;31.30;1.00
6206;DHT22;3136;48.788;9.772;2022-07-12T14:21:27;30.70;1.00
6206;DHT22;3136;48.788;9.772;2022-07-12T14:23:58;30.00;1.00
6206;DHT22;3136;48.788;9.772;2022-07-12T14:26:26;29.30;1.00
6206;DHT22;3136;48.788;9.772;2022-07-12T14:28:52;28.80;1.00
6206;DHT22;3136;48.788;9.772;2022-07-12T14:31:17;28.50;1.00
6206;DHT22;3136;48.788;9.772;2022-07-12T14:33:43;28.30;1.00
6206;DHT22;3136;48.788;9.772;2022-07-12T14:36:09;28.20;1.00
6206;DHT22;3136;48.788;9.772;2022-07-12T14:38:35;28.00;1.00
6206;DHT22;3136;48.788;9.772;2022-07-12T14:41:00;27.90;1.00
6206;DHT22;3136;48.788;9.772;2022-07-12T14:43:26;27.90;1.00
6206;DHT22;3136;48.788;9.772;2022-07-12T14:45:51;27.90;1.00
6206;DHT22;3136;48.788;9.772;2022-07-12T14:48:17;27.70;1.00
6206;DHT22;3136;48.788;9.772;2022-07-12T14:50:42;27.70;1.00
6206;DHT22;3136;48.788;9.772;2022-07-12T14:53:08;27.60;1.00
6206;DHT22;3136;48.788;9.772;2022-07-12T14:55:34;27.50;1.00
6206;DHT22;3136;48.788;9.772;2022-07-12T14:57:59;27.50;1.00
6206;DHT22;3136;48.788;9.772;2022-07-12T15:00:26;27.50;1.00
6206;DHT22;3136;48.788;9.772;2022-07-12T15:02:52;27.40;1.00
6206;DHT22;3136;48.788;9.772;2022-07-12T15:05:18;27.30;1.00
6206;DHT22;3136;48.788;9.772;2022-07-12T15:07:44;27.20;1.00
6206;DHT22;3136;48.788;9.772;2022-07-12T15:10:09;27.10;1.00
6206;DHT22;3136;48.788;9.772;2022-07-12T15:12:35;27.00;1.00
6206;DHT22;3136;48.788;9.772;2022-07-12T15:15:01;27.10;1.00
6206;DHT22;3136;48.788;9.772;2022-07-12T15:17:27;27.00;1.00
6206;DHT22;3136;48.788;9.772;2022-07-12T15:19:53;27.00;1.00
6206;DHT22;3136;48.788;9.772;2022-07-12T15:22:19;26.90;1.00
6206;DHT22;3136;48.788;9.772;2022-07-12T15:24:45;26.80;1.00
6206;DHT22;3136;48.788;9.772;2022-07-12T15:27:10;26.80;1.00
6206;DHT22;3136;48.788;9.772;2022-07-12T15:29:39;26.70;1.00
6206;DHT22;3136;48.788;9.772;2022-07-12T15:32:10;26.70;1.00
6206;DHT22;3136;48.788;9.772;2022-07-12T15:34:36;26.70;1.00
6206;DHT22;3136;48.788;9.772;2022-07-12T15:37:02;26.60;1.00
6206;DHT22;3136;48.788;9.772;2022-07-12T15:39:28;26.50;1.00
6206;DHT22;3136;48.788;9.772;2022-07-12T15:41:53;26.40;1.00
6206;DHT22;3136;48.788;9.772;2022-07-12T15:44:19;26.30;1.00
6206;DHT22;3136;48.788;9.772;2022-07-12T15:46:45;26.30;1.00
6206;DHT22;3136;48.788;9.772;2022-07-12T15:49:11;26.20;1.00
6206;DHT22;3136;48.788;9.772;2022-07-12T15:51:37;26.20;1.00
6206;DHT22;3136;48.788;9.772;2022-07-12T15:54:22;26.20;1.00
6206;DHT22;3136;48.788;9.772;2022-07-12T15:56:48;26.10;1.00
6206;DHT22;3136;48.788;9.772;2022-07-12T15:59:14;26.10;1.00
6206;DHT22;3136;48.788;9.772;2022-07-12T16:01:39;26.20;1.00
6206;DHT22;3136;48.788;9.772;2022-07-12T16:04:07;26.20;1.00
6206;DHT22;3136;48.788;9.772;2022-07-12T16:06:33;26.10;1.00
6206;DHT22;3136;48.788;9.772;2022-07-12T16:09:01;26.10;1.00
6206;DHT22;3136;48.788;9.772;2022-07-12T16:11:27;26.10;1.00
6206;DHT22;3136;48.788;9.772;2022-07-12T16:13:53;25.80;1.00
6206;DHT22;3136;48.788;9.772;2022-07-12T16:16:18;25.90;1.00
6206;DHT22;3136;48.788;9.772;2022-07-12T16:18:44;25.90;1.00
6206;DHT22;3136;48.788;9.772;2022-07-12T16:21:10;25.80;1.00